Time;durP1;ratioP1;P1;durP2;ratioP2;P2;SDS_P1;SDS_P2;PMS_P1;PMS_P2;Temp;Humidity;BMP_temperature;BMP_pressure;BME280_temperature;BME280_humidity;BME280_pressure;Samples;Min_cycle;Max_cycle;Signal;HPM_P1;HPM_P2
2021/11/21 00:00:14;;;;;;;;;1.00;1.00;;;;;8.60;71.76;101442.28;5084064;28;45244;-83
2021/11/21 00:02:40;;;;;;;;;2.00;1.00;;;;;8.51;71.79;101418.59;5084230;28;45327;-83
2021/11/21 00:05:06;;;;;;;;;3.75;1.00;;;;;8.53;71.67;101419.53;5083368;28;46064;-83
2021/11/21 00:07:32;;;;;;;;;3.00;1.00;;;;;8.46;71.50;101409.84;5082354;28;45359;-83
2021/11/21 00:09:57;;;;;;;;;2.00;1.00;;;;;8.46;71.63;101402.06;5083291;28;45232;-83
2021/11/21 00:12:22;;;;;;;;;2.75;0.25;;;;;8.55;71.67;101412.69;5084027;28;45215;-84
2021/11/21 00:14:48;;;;;;;;;1.50;1.50;;;;;8.47;72.23;101393.41;5065231;28;46069;-83
2021/11/21 00:17:13;;;;;;;;;1.75;0.00;;;;;8.53;71.35;101405.69;5083606;28;45262;-83
2021/11/21 00:19:41;;;;;;;;;3.50;1.00;;;;;8.32;71.69;101378.28;5082873;28;45158;-83
2021/11/21 00:22:07;;;;;;;;;3.25;1.00;;;;;8.37;71.88;101394.88;5082453;28;45239;-83
2021/11/21 00:24:33;;;;;;;;;2.50;2.00;;;;;8.24;71.82;101367.72;5083188;28;46140;-84
2021/11/21 00:26:58;;;;;;;;;0.50;0.25;;;;;8.24;71.91;101365.13;5083001;28;45401;-83
2021/11/21 00:29:24;;;;;;;;;1.00;1.00;;;;;8.53;71.58;101401.38;5083531;28;45329;-83
2021/11/21 00:31:49;;;;;;;;;0.75;0.25;;;;;8.49;71.84;101378.78;5058434;28;45551;-83
2021/11/21 00:34:14;;;;;;;;;1.50;1.50;;;;;8.54;71.52;101382.41;5063326;28;45545;-83
2021/11/21 00:36:40;;;;;;;;;0.00;0.00;;;;;8.53;71.56;101372.84;5045229;28;45835;-83
2021/11/21 00:39:05;;;;;;;;;0.00;0.00;;;;;8.58;71.13;101380.78;5063546;28;45301;-83
2021/11/21 00:41:31;;;;;;;;;0.00;0.00;;;;;8.71;70.89;101390.66;5045721;28;45505;-83
2021/11/21 00:43:56;;;;;;;;;0.25;0.25;;;;;8.77;70.88;101391.66;5064287;28;45458;-83
2021/11/21 00:46:23;;;;;;;;;0.75;0.00;;;;;8.54;70.89;101332.22;5063562;28;45261;-83
2021/11/21 00:48:49;;;;;;;;;0.25;0.25;;;;;8.65;70.91;101354.16;5062860;28;45292;-83
2021/11/21 00:51:15;;;;;;;;;4.25;1.25;;;;;8.80;70.92;101374.44;5063966;28;45182;-83
2021/11/21 00:53:43;;;;;;;;;0.00;0.00;;;;;8.75;70.51;101363.06;5062911;28;45624;-83
2021/11/21 00:56:09;;;;;;;;;1.00;1.00;;;;;8.76;70.68;101375.19;5062733;28;45386;-83
2021/11/21 00:58:36;;;;;;;;;1.75;0.50;;;;;8.81;70.37;101373.59;5063093;28;45299;-83
2021/11/21 01:01:04;;;;;;;;;1.75;0.00;;;;;8.61;70.83;101331.56;5063407;28;45308;-83
2021/11/21 01:03:30;;;;;;;;;0.75;0.75;;;;;8.77;70.79;101360.50;5044860;28;48373;-83
2021/11/21 01:05:56;;;;;;;;;3.50;3.50;;;;;8.87;70.53;101375.47;5062391;28;45181;-83
2021/11/21 01:08:22;;;;;;;;;2.00;2.00;;;;;8.78;70.50;101351.84;5044292;28;45276;-83
2021/11/21 01:10:51;;;;;;;;;1.00;1.00;;;;;8.91;70.72;101363.47;5062870;28;45515;-83
2021/11/21 01:13:17;;;;;;;;;3.25;0.50;;;;;8.94;70.60;101363.53;5044138;28;48195;-83
2021/11/21 01:15:43;;;;;;;;;1.50;1.50;;;;;8.60;70.65;101307.31;5062445;28;45221;-83
2021/11/21 01:18:09;;;;;;;;;1.00;1.00;;;;;8.73;70.37;101349.16;5062409;28;45432;-83
2021/11/21 01:20:37;;;;;;;;;0.00;0.00;;;;;8.56;71.37;101323.66;5063003;28;45328;-83
2021/11/21 01:23:04;;;;;;;;;0.25;0.00;;;;;8.72;70.96;101352.59;5062276;28;45479;-83
2021/11/21 01:25:30;;;;;;;;;1.00;0.00;;;;;8.75;70.95;101355.25;5043795;28;45425;-83
2021/11/21 01:27:55;;;;;;;;;3.00;2.25;;;;;8.75;71.20;101352.66;5062444;28;45256;-83
2021/11/21 01:30:26;;;;;;;;;4.25;0.25;;;;;8.83;70.99;101366.75;5044426;28;45369;-82
2021/11/21 01:32:53;;;;;;;;;4.25;1.00;;;;;8.77;71.13;101360.50;5077830;28;45942;-81
2021/11/21 01:35:19;;;;;;;;;0.75;0.75;;;;;8.64;71.27;101335.94;5089275;28;45406;-82
2021/11/21 01:37:47;;;;;;;;;1.75;1.25;;;;;8.73;71.36;101349.16;5086259;28;45298;-82
2021/11/21 01:40:15;;;;;;;;;4.00;2.00;;;;;8.67;71.22;101343.81;5086365;28;45608;-82
2021/11/21 01:42:42;;;;;;;;;1.00;1.00;;;;;8.48;70.94;101323.41;5086040;28;46363;-82
2021/11/21 01:45:09;;;;;;;;;0.50;0.50;;;;;8.41;71.68;101324.06;5067517;28;45395;-82
2021/11/21 01:47:39;;;;;;;;;1.00;0.00;;;;;8.59;71.78;101360.06;5085875;28;45342;-82
2021/11/21 01:50:13;;;;;;;;;1.25;1.25;;;;;8.39;71.92;101332.66;5085725;28;45181;-82
2021/11/21 01:52:39;;;;;;;;;3.25;1.50;;;;;8.34;72.21;101341.22;5068362;28;46889;-82
2021/11/21 01:55:06;;;;;;;;;1.50;1.00;;;;;8.43;72.04;101360.44;5085484;28;45313;-82
2021/11/21 01:57:31;;;;;;;;;3.00;2.00;;;;;8.22;72.52;101312.31;5067531;28;45251;-83
2021/11/21 02:00:03;;;;;;;;;0.25;0.25;;;;;8.26;71.73;101308.97;5084890;28;45260;-82
2021/11/21 02:02:29;;;;;;;;;2.00;2.00;;;;;8.37;72.07;101336.06;5085539;28;45389;-83
2021/11/21 02:04:55;;;;;;;;;3.00;1.00;;;;;8.33;72.50;101331.66;5083733;28;45245;-83
2021/11/21 02:07:21;;;;;;;;;0.75;0.75;;;;;8.39;72.22;101343.91;5085926;28;45291;-82
2021/11/21 02:09:46;;;;;;;;;1.00;1.00;;;;;8.39;72.15;101333.53;5084280;28;45194;-82
2021/11/21 02:12:12;;;;;;;;;1.00;1.00;;;;;8.35;71.87;101324.78;5085483;28;46202;-82
2021/11/21 02:14:37;;;;;;;;;1.00;0.50;;;;;8.34;72.03;101319.56;5085500;28;45393;-82
2021/11/21 02:17:03;;;;;;;;;1.00;1.00;;;;;8.34;72.12;101322.16;5084110;28;45422;-82
2021/11/21 02:19:29;;;;;;;;;1.50;1.50;;;;;8.26;72.11;101290.81;5084138;28;45533;-82
2021/11/21 02:21:55;;;;;;;;;0.00;0.00;;;;;8.45;72.00;101312.03;5085526;28;46127;-82
2021/11/21 02:24:20;;;;;;;;;5.75;3.50;;;;;8.43;72.09;101304.25;5067066;28;45243;-82
2021/11/21 02:26:45;;;;;;;;;2.75;1.50;;;;;8.56;71.89;101320.16;5085352;28;45362;-82
2021/11/21 02:29:11;;;;;;;;;0.00;0.00;;;;;8.49;72.23;101300.94;5085630;28;45343;-82
2021/11/21 02:31:38;;;;;;;;;0.75;0.75;;;;;8.49;71.78;101314.75;5084919;28;46006;-82
2021/11/21 02:34:04;;;;;;;;;0.25;0.00;;;;;8.32;71.94;101282.31;5066388;28;45216;-82
2021/11/21 02:36:30;;;;;;;;;2.50;0.75;;;;;8.27;72.26;101289.97;5084136;28;45236;-82
2021/11/21 02:38:55;;;;;;;;;1.00;1.00;;;;;8.11;72.42;101261.03;5085625;28;45449;-82
2021/11/21 02:41:20;;;;;;;;;0.75;0.75;;;;;8.14;72.00;101264.56;5085187;28;46100;-82
2021/11/21 02:43:46;;;;;;;;;2.00;1.25;;;;;8.29;72.58;101280.53;5084561;28;45316;-82
2021/11/21 02:46:13;;;;;;;;;0.00;0.00;;;;;8.40;72.34;101293.78;5067195;28;45300;-82
2021/11/21 02:48:38;;;;;;;;;2.00;0.00;;;;;8.37;72.22;101304.94;5085114;28;45345;-82
2021/11/21 02:51:06;;;;;;;;;4.00;2.00;;;;;8.23;72.12;101283.81;5084870;28;45465;-83
2021/11/21 02:53:34;;;;;;;;;1.00;1.00;;;;;8.36;72.38;101297.13;5084977;28;45338;-82
2021/11/21 02:56:11;;;;;;;;;2.00;1.00;;;;;8.28;72.15;101272.69;5085052;28;45283;-82
2021/11/21 02:58:37;;;;;;;;;3.00;1.25;;;;;8.34;72.41;101289.31;5085291;28;45218;-82
2021/11/21 03:01:14;;;;;;;;;1.00;1.00;;;;;8.20;71.78;101272.47;5084633;28;46330;-82
2021/11/21 03:03:40;;;;;;;;;1.00;1.00;;;;;8.15;72.28;101267.16;5084743;28;45384;-82
2021/11/21 03:06:05;;;;;;;;;0.50;0.50;;;;;8.20;72.63;101269.88;5086420;28;45508;-81
2021/11/21 03:08:31;;;;;;;;;2.00;2.00;;;;;8.18;72.24;101272.44;5087693;28;45315;-82
2021/11/21 03:11:04;;;;;;;;;1.25;1.25;;;;;7.98;72.59;101226.13;5067860;28;47583;-82
2021/11/21 03:13:30;;;;;;;;;0.00;0.00;;;;;8.10;72.67;101245.44;5085462;28;45311;-82
2021/11/21 03:15:56;;;;;;;;;1.50;1.50;;;;;8.23;72.08;101252.72;5085010;28;45415;-82
2021/11/21 03:18:21;;;;;;;;;1.75;1.75;;;;;7.99;72.72;101246.00;5084922;28;45429;-82
2021/11/21 03:20:46;;;;;;;;;1.00;1.00;;;;;7.91;72.88;101228.50;5084598;28;46579;-82
2021/11/21 03:23:12;;;;;;;;;4.00;1.50;;;;;7.80;72.81;101207.44;5065711;28;46011;-82
2021/11/21 03:25:37;;;;;;;;;2.00;1.25;;;;;7.83;72.75;101217.91;5084576;28;45211;-82
2021/11/21 03:28:03;;;;;;;;;1.00;1.00;;;;;8.06;72.66;101248.78;5084796;28;45230;-82
2021/11/21 03:30:29;;;;;;;;;3.50;1.25;;;;;7.79;73.13;101221.25;5084453;28;45602;-82
2021/11/21 03:32:54;;;;;;;;;1.00;0.50;;;;;7.97;73.23;101239.91;5083850;28;45354;-82
2021/11/21 03:35:20;;;;;;;;;1.00;1.00;;;;;7.70;72.65;101191.66;5082951;28;45416;-82
2021/11/21 03:37:46;;;;;;;;;1.75;1.75;;;;;7.76;72.85;101196.13;5084408;28;45437;-82
2021/11/21 03:40:15;;;;;;;;;2.50;2.50;;;;;8.01;72.77;101239.97;5083911;28;45365;-82
2021/11/21 03:42:41;;;;;;;;;3.00;3.00;;;;;7.91;73.39;101226.78;5084042;28;45427;-82
2021/11/21 03:45:10;;;;;;;;;1.00;1.00;;;;;7.91;72.96;101221.59;5065855;28;45389;-82
2021/11/21 03:47:36;;;;;;;;;0.50;0.50;;;;;7.85;73.29;101208.47;5066062;28;45241;-82
2021/11/21 03:50:03;;;;;;;;;0.00;0.00;;;;;8.03;73.57;101223.66;5083796;28;45247;-82
2021/11/21 03:52:29;;;;;;;;;0.00;0.00;;;;;8.01;73.09;101208.88;5067868;28;45428;-82
2021/11/21 03:54:54;;;;;;;;;1.75;1.75;;;;;7.88;72.80;101192.13;5087784;28;45331;-81
2021/11/21 03:57:19;;;;;;;;;2.50;1.00;;;;;7.86;72.97;101208.50;5085114;28;45345;-82
2021/11/21 03:59:45;;;;;;;;;5.00;2.00;;;;;7.75;73.02;101196.94;5066486;28;48295;-82
2021/11/21 04:02:10;;;;;;;;;1.00;1.00;;;;;7.99;73.17;101239.94;5083938;28;45317;-82
2021/11/21 04:04:36;;;;;;;;;1.00;1.00;;;;;7.71;72.93;101176.97;5083971;28;45291;-82
2021/11/21 04:07:01;;;;;;;;;1.00;1.00;;;;;8.04;73.69;101232.28;5084323;28;45624;-82
2021/11/21 04:09:27;;;;;;;;;0.75;0.75;;;;;8.07;72.96;101216.81;5082107;28;47335;-82
2021/11/21 04:11:52;;;;;;;;;0.50;0.50;;;;;8.12;73.06;101220.44;5083704;28;45264;-82
2021/11/21 04:14:19;;;;;;;;;4.75;1.25;;;;;8.19;72.85;101231.81;5084003;28;45304;-82
2021/11/21 04:16:53;;;;;;;;;1.75;1.75;;;;;8.07;72.93;101198.66;5097124;27;45648;-83
2021/11/21 04:19:18;;;;;;;;;4.00;2.75;;;;;8.08;73.25;101214.25;5079335;28;45412;-83
2021/11/21 04:21:44;;;;;;;;;3.00;1.00;;;;;8.16;73.47;101216.19;5095398;27;45321;-83
2021/11/21 04:24:13;;;;;;;;;1.50;1.50;;;;;7.93;73.10;101174.97;5078359;28;45512;-83
2021/11/21 04:26:41;;;;;;;;;1.00;1.00;;;;;7.94;73.04;101172.44;5079317;28;46133;-83
2021/11/21 04:29:06;;;;;;;;;3.00;1.00;;;;;7.97;73.19;101182.00;5079386;28;45374;-83
2021/11/21 04:31:32;;;;;;;;;0.75;0.75;;;;;7.99;73.04;101178.59;5079391;27;45491;-83
2021/11/21 04:33:57;;;;;;;;;1.50;1.00;;;;;8.04;73.55;101183.91;5098420;27;45329;-83
2021/11/21 04:36:23;;;;;;;;;5.50;1.00;;;;;8.05;73.53;101187.38;5098435;27;47349;-83
2021/11/21 04:38:49;;;;;;;;;3.00;1.00;;;;;8.15;73.89;101201.47;5099974;27;45318;-82
2021/11/21 04:41:14;;;;;;;;;0.00;0.00;;;;;8.08;73.96;101187.44;5100026;27;45498;-84
2021/11/21 04:43:39;;;;;;;;;2.50;1.00;;;;;8.05;73.66;101175.28;5100094;27;45246;-83
2021/11/21 04:46:05;;;;;;;;;1.00;1.00;;;;;8.01;74.10;101169.97;5099521;27;45314;-83
2021/11/21 04:48:30;;;;;;;;;1.00;1.00;;;;;7.95;74.02;101158.63;5099602;27;45281;-83
2021/11/21 04:50:55;;;;;;;;;0.75;0.75;;;;;7.98;73.78;101163.88;5100960;27;45471;-83
2021/11/21 04:53:22;;;;;;;;;0.00;0.00;;;;;8.06;73.58;101174.44;5099726;27;45258;-83
2021/11/21 04:55:47;;;;;;;;;2.00;2.00;;;;;7.94;74.04;101162.06;5097937;27;47204;-83
2021/11/21 04:58:14;;;;;;;;;2.50;0.75;;;;;8.00;73.44;101169.13;5098048;27;45285;-81
2021/11/21 05:00:40;;;;;;;;;1.25;1.00;;;;;7.95;73.88;101161.22;5099592;27;45312;-81
2021/11/21 05:03:05;;;;;;;;;1.50;1.00;;;;;7.94;74.04;101166.34;5099414;27;45492;-83
2021/11/21 05:05:30;;;;;;;;;1.00;1.00;;;;;7.94;73.38;101169.84;5099261;27;45420;-82
2021/11/21 05:07:56;;;;;;;;;2.00;0.75;;;;;7.89;73.80;101161.03;5099413;27;45297;-82
2021/11/21 05:10:22;;;;;;;;;2.50;2.00;;;;;7.97;73.81;101171.63;5098121;27;45312;-82
2021/11/21 05:12:49;;;;;;;;;0.50;0.50;;;;;7.60;73.74;101125.72;5099358;27;45553;-82
2021/11/21 05:15:17;;;;;;;;;0.00;0.00;;;;;7.66;74.20;101126.75;5105583;27;45934;-82
2021/11/21 05:17:45;;;;;;;;;2.00;2.00;;;;;7.68;73.94;101144.09;5119508;27;45163;-82
2021/11/21 05:20:11;;;;;;;;;1.00;0.75;;;;;7.79;74.32;101157.34;5100695;27;45347;-82
2021/11/21 05:22:37;;;;;;;;;1.25;1.00;;;;;7.66;74.21;101137.97;5119805;27;45519;-82
2021/11/21 05:25:02;;;;;;;;;2.00;1.25;;;;;7.71;74.74;101135.50;5119031;27;45413;-83
2021/11/21 05:27:27;;;;;;;;;0.25;0.25;;;;;7.76;74.12;101133.94;5110075;27;45370;-82
2021/11/21 05:29:53;;;;;;;;;3.00;1.00;;;;;7.73;74.35;101120.88;5087474;27;45873;-82
2021/11/21 05:32:19;;;;;;;;;1.25;0.50;;;;;7.58;74.46;101096.31;5098039;27;45290;-83
2021/11/21 05:34:44;;;;;;;;;2.00;1.50;;;;;7.90;74.39;101157.59;5084779;28;45323;-83
2021/11/21 05:37:10;;;;;;;;;2.00;1.75;;;;;7.78;74.35;101134.81;5085141;28;45276;-83
2021/11/21 05:39:35;;;;;;;;;2.50;1.00;;;;;7.67;74.63;101110.34;5066863;28;45351;-83
2021/11/21 05:42:00;;;;;;;;;2.00;0.00;;;;;7.77;74.12;101132.19;5067087;28;45588;-83
2021/11/21 05:44:26;;;;;;;;;0.00;0.00;;;;;7.79;74.68;101126.25;5085059;28;46375;-83
2021/11/21 05:46:51;;;;;;;;;1.00;1.00;;;;;7.93;74.45;101142.13;5085123;28;45163;-82
2021/11/21 05:49:16;;;;;;;;;0.50;0.50;;;;;7.91;74.41;101142.94;5084959;28;45150;-83
2021/11/21 05:51:42;;;;;;;;;1.00;0.75;;;;;7.88;75.23;101137.69;5067053;28;45224;-82
2021/11/21 05:54:08;;;;;;;;;0.00;0.00;;;;;7.69;74.64;101106.09;5084917;28;45296;-82
2021/11/21 05:56:33;;;;;;;;;1.00;1.00;;;;;7.70;74.89;101095.78;5066558;28;45290;-82
2021/11/21 05:58:59;;;;;;;;;1.25;1.00;;;;;8.01;74.24;101144.03;5066908;28;45339;-82
2021/11/21 06:01:24;;;;;;;;;1.50;1.00;;;;;7.68;74.71;101093.94;5066895;28;45210;-82
2021/11/21 06:03:51;;;;;;;;;2.00;1.75;;;;;7.73;74.66;101111.41;5084518;28;45988;-82
2021/11/21 06:06:21;;;;;;;;;1.50;1.50;;;;;7.57;74.91;101093.69;5066362;28;45323;-82
2021/11/21 06:08:46;;;;;;;;;1.00;0.50;;;;;7.83;74.32;101124.59;5084626;28;45288;-83
2021/11/21 06:11:12;;;;;;;;;3.50;3.00;;;;;7.78;74.37;101110.66;5066727;28;45625;-83
2021/11/21 06:13:38;;;;;;;;;0.75;0.75;;;;;7.78;74.73;101097.69;5084614;28;45448;-83
2021/11/21 06:16:03;;;;;;;;;5.00;1.00;;;;;7.97;74.72;101130.16;5066169;28;45524;-82
2021/11/21 06:18:29;;;;;;;;;0.00;0.00;;;;;7.91;74.36;101111.84;5084745;28;45153;-83
2021/11/21 06:20:54;;;;;;;;;0.25;0.25;;;;;7.78;73.98;101100.28;5084901;28;45279;-83
2021/11/21 06:23:19;;;;;;;;;2.75;1.50;;;;;7.82;74.49;101110.78;5084093;28;45983;-83
2021/11/21 06:25:45;;;;;;;;;0.75;0.50;;;;;7.69;74.22;101085.38;5084189;28;45417;-82
2021/11/21 06:28:12;;;;;;;;;1.00;1.00;;;;;7.58;74.29;101061.75;5084486;28;45323;-82
2021/11/21 06:30:39;;;;;;;;;1.25;0.50;;;;;7.94;74.80;101118.00;5066386;28;45568;-83
2021/11/21 06:33:05;;;;;;;;;1.75;1.00;;;;;7.99;74.56;101110.31;5098507;27;45300;-83
2021/11/21 06:35:31;;;;;;;;;1.75;1.75;;;;;7.96;74.61;101107.63;5104621;27;45277;-83
2021/11/21 06:37:57;;;;;;;;;1.00;0.00;;;;;7.99;74.50;101108.59;5104314;27;45223;-83
2021/11/21 06:40:22;;;;;;;;;2.00;0.25;;;;;8.09;74.40;101133.03;5104226;27;45294;-82
2021/11/21 06:42:47;;;;;;;;;1.00;1.00;;;;;8.05;73.78;101119.94;5104612;27;45282;-83
2021/11/21 06:45:13;;;;;;;;;1.00;1.00;;;;;7.92;74.04;101113.56;5104682;27;45223;-83
2021/11/21 06:47:40;;;;;;;;;0.00;0.00;;;;;8.02;74.80;101120.75;5104805;27;45274;-83
2021/11/21 06:50:08;;;;;;;;;2.00;0.00;;;;;7.88;74.68;101101.38;5104565;27;45310;-83
2021/11/21 06:52:34;;;;;;;;;0.25;0.00;;;;;8.02;74.45;101114.72;5104366;27;45321;-83
2021/11/21 06:55:01;;;;;;;;;1.00;1.00;;;;;8.06;74.56;101106.16;5104181;27;45302;-84
2021/11/21 06:57:27;;;;;;;;;1.00;1.00;;;;;8.05;74.31;101107.88;5086167;27;45283;-84
2021/11/21 06:59:52;;;;;;;;;3.00;0.00;;;;;8.01;74.37;101094.78;5086269;27;45184;-83
2021/11/21 07:02:18;;;;;;;;;3.00;0.00;;;;;8.06;74.23;101104.44;5104310;27;46302;-83
2021/11/21 07:04:43;;;;;;;;;1.00;0.75;;;;;8.18;74.31;101118.56;5103905;27;45208;-83
2021/11/21 07:07:10;;;;;;;;;0.00;0.00;;;;;8.22;74.49;101112.59;5104259;27;45427;-84
2021/11/21 07:09:37;;;;;;;;;1.50;0.00;;;;;7.94;74.00;101066.13;5104149;27;45489;-83
2021/11/21 07:12:02;;;;;;;;;0.25;0.25;;;;;8.11;74.39;101105.44;5085656;27;48285;-83
2021/11/21 07:14:28;;;;;;;;;2.00;1.00;;;;;7.88;74.33;101072.88;5103683;27;45444;-83
2021/11/21 07:16:53;;;;;;;;;0.00;0.00;;;;;8.05;73.95;101101.78;5085803;27;45317;-83
2021/11/21 07:19:19;;;;;;;;;0.75;0.75;;;;;8.03;74.34;101104.38;5104162;27;45350;-83
2021/11/21 07:21:45;;;;;;;;;2.00;1.00;;;;;8.10;74.09;101118.34;5103906;27;45448;-81
2021/11/21 07:24:11;;;;;;;;;1.75;0.50;;;;;7.95;74.33;101093.81;5103762;27;45311;-82
2021/11/21 07:26:38;;;;;;;;;0.00;0.00;;;;;7.99;74.43;101111.19;5085212;27;45356;-83
2021/11/21 07:29:04;;;;;;;;;1.00;1.00;;;;;8.01;74.46;101110.34;5104107;27;45330;-83
2021/11/21 07:31:30;;;;;;;;;2.75;1.00;;;;;7.95;74.15;101087.72;5102419;27;45441;-82
2021/11/21 07:33:55;;;;;;;;;2.75;1.00;;;;;7.93;74.18;101094.63;5066750;28;45979;-82
2021/11/21 07:36:21;;;;;;;;;0.50;0.50;;;;;7.91;74.11;101083.31;5083215;28;45249;-82
2021/11/21 07:38:47;;;;;;;;;1.00;1.00;;;;;7.84;74.82;101074.53;5083464;28;45443;-82
2021/11/21 07:41:13;;;;;;;;;1.00;1.00;;;;;7.71;74.50;101050.88;5082930;28;45395;-83
2021/11/21 07:43:38;;;;;;;;;0.00;0.00;;;;;7.81;74.85;101059.75;5082907;28;45330;-83
2021/11/21 07:46:05;;;;;;;;;2.75;1.75;;;;;8.10;74.72;101100.22;5083329;28;45263;-82
2021/11/21 07:48:30;;;;;;;;;1.75;1.75;;;;;7.93;74.34;101082.50;5083500;28;45465;-83
2021/11/21 07:50:57;;;;;;;;;0.00;0.00;;;;;8.13;74.96;101100.28;5082424;28;45161;-84
2021/11/21 07:53:23;;;;;;;;;2.00;0.75;;;;;8.00;74.74;101065.41;5064534;28;45211;-81
2021/11/21 07:55:48;;;;;;;;;0.75;0.75;;;;;8.14;74.64;101099.44;5064748;28;45477;-82
2021/11/21 07:58:14;;;;;;;;;0.00;0.00;;;;;8.14;74.75;101096.00;5083307;28;45213;-81
2021/11/21 08:00:39;;;;;;;;;0.25;0.25;;;;;8.13;74.36;101091.63;5064431;28;47193;-82
2021/11/21 08:03:05;;;;;;;;;1.75;1.00;;;;;8.05;74.14;101071.56;5082463;28;45351;-82
2021/11/21 08:05:30;;;;;;;;;1.00;1.00;;;;;8.33;74.64;101107.69;5082881;28;45361;-82
2021/11/21 08:07:55;;;;;;;;;0.00;0.00;;;;;8.17;74.39;101065.81;5083267;28;45598;-82
2021/11/21 08:10:21;;;;;;;;;0.50;0.50;;;;;8.34;73.95;101093.88;5083241;28;45311;-82
2021/11/21 08:12:46;;;;;;;;;1.00;1.00;;;;;8.03;73.90;101059.41;5082942;28;45295;-82
2021/11/21 08:15:12;;;;;;;;;1.00;1.00;;;;;8.06;74.13;101065.53;5083060;28;45255;-82
2021/11/21 08:17:38;;;;;;;;;0.50;0.50;;;;;8.18;74.18;101088.28;5082863;28;45301;-83
2021/11/21 08:20:04;;;;;;;;;2.00;2.00;;;;;8.23;74.52;101085.81;5064145;28;46969;-82
2021/11/21 08:22:30;;;;;;;;;0.00;0.00;;;;;8.20;74.27;101081.44;5082787;28;45256;-83
2021/11/21 08:24:55;;;;;;;;;0.00;0.00;;;;;8.01;74.53;101049.00;5082664;28;45257;-82
2021/11/21 08:27:21;;;;;;;;;1.00;1.00;;;;;8.22;74.61;101079.78;5082604;28;45291;-82
2021/11/21 08:29:46;;;;;;;;;0.00;0.00;;;;;8.22;74.74;101082.38;5064702;28;47230;-83
2021/11/21 08:32:12;;;;;;;;;3.75;2.25;;;;;8.32;74.36;101098.13;5072371;27;45216;-82
2021/11/21 08:34:37;;;;;;;;;0.00;0.00;;;;;8.26;74.51;101083.28;5102611;27;45282;-83
2021/11/21 08:37:03;;;;;;;;;0.00;0.00;;;;;8.30;74.13;101090.31;5084474;27;45567;-83
2021/11/21 08:39:28;;;;;;;;;0.25;0.25;;;;;8.19;74.45;101069.31;5084433;27;47318;-83
2021/11/21 08:41:55;;;;;;;;;1.00;1.00;;;;;8.42;74.63;101097.50;5102722;27;45286;-83
2021/11/21 08:44:22;;;;;;;;;0.00;0.00;;;;;7.82;74.13;101011.38;5103078;27;45287;-83
2021/11/21 08:46:48;;;;;;;;;2.00;0.00;;;;;8.30;74.46;101082.53;5103384;27;45292;-83
2021/11/21 08:49:14;;;;;;;;;0.00;0.00;;;;;8.27;74.22;101081.59;5102388;27;46185;-83
2021/11/21 08:51:45;;;;;;;;;0.25;0.25;;;;;8.29;74.23;101077.28;5103370;27;45272;-81
2021/11/21 08:54:12;;;;;;;;;2.75;1.00;;;;;8.42;73.98;101101.84;5107429;27;45265;-82
2021/11/21 08:56:37;;;;;;;;;0.00;0.00;;;;;8.46;74.29;101099.31;5102701;27;45255;-82
2021/11/21 08:59:03;;;;;;;;;1.00;1.00;;;;;8.32;73.88;101093.81;5083852;27;47289;-82
2021/11/21 09:01:29;;;;;;;;;0.00;0.00;;;;;8.25;74.15;101086.75;5102928;27;45378;-83
2021/11/21 09:03:54;;;;;;;;;0.25;0.00;;;;;8.23;74.49;101068.56;5087636;27;45270;-82
2021/11/21 09:06:20;;;;;;;;;2.00;0.00;;;;;8.30;74.36;101068.69;5106512;27;45281;-83
2021/11/21 09:08:45;;;;;;;;;0.00;0.00;;;;;8.52;74.05;101089.94;5106552;27;45238;-83
2021/11/21 09:11:10;;;;;;;;;0.00;0.00;;;;;8.30;74.25;101045.34;5111771;27;45219;-82
2021/11/21 09:13:36;;;;;;;;;1.50;1.25;;;;;8.44;73.90;101064.69;5111261;27;45233;-83
2021/11/21 09:16:01;;;;;;;;;1.00;1.00;;;;;8.50;73.97;101063.97;5109975;27;45154;-84
2021/11/21 09:18:27;;;;;;;;;0.25;0.25;;;;;8.45;74.15;101056.06;5107063;27;46236;-81
2021/11/21 09:20:56;;;;;;;;;3.25;2.00;;;;;8.47;73.97;101051.81;5106899;27;45227;-82
2021/11/21 09:23:23;;;;;;;;;1.00;1.00;;;;;8.59;73.71;101066.81;5105990;27;45412;-82
2021/11/21 09:25:49;;;;;;;;;1.00;1.00;;;;;8.49;74.08;101075.19;5105311;27;45341;-82
2021/11/21 09:28:15;;;;;;;;;0.25;0.25;;;;;8.55;74.24;101085.72;5087032;27;46413;-83
2021/11/21 09:30:41;;;;;;;;;0.00;0.00;;;;;8.33;73.92;101061.00;5105738;27;45209;-82
2021/11/21 09:33:07;;;;;;;;;2.00;2.00;;;;;8.42;74.08;101094.91;5090339;27;45225;-83
2021/11/21 09:35:32;;;;;;;;;2.25;2.00;;;;;8.41;74.15;101105.25;5085006;28;45240;-82
2021/11/21 09:37:58;;;;;;;;;0.00;0.00;;;;;8.15;74.36;101079.59;5084870;28;45388;-82
2021/11/21 09:40:24;;;;;;;;;1.25;1.00;;;;;8.29;74.44;101100.66;5084841;28;45165;-82
2021/11/21 09:42:50;;;;;;;;;0.50;0.00;;;;;8.26;74.69;101078.13;5085290;28;45469;-82
2021/11/21 09:45:18;;;;;;;;;2.00;1.75;;;;;8.30;74.49;101068.69;5085013;28;45577;-82
2021/11/21 09:47:53;;;;;;;;;1.75;1.00;;;;;8.36;74.83;101064.50;5084602;28;45460;-83
2021/11/21 09:50:21;;;;;;;;;1.50;0.00;;;;;8.67;74.42;101099.84;5067011;28;45331;-82
2021/11/21 09:52:48;;;;;;;;;1.50;0.75;;;;;8.69;74.46;101087.75;5066185;28;45274;-82
2021/11/21 09:55:14;;;;;;;;;1.00;1.00;;;;;8.75;73.70;101080.09;5066920;28;45252;-83
2021/11/21 09:57:39;;;;;;;;;0.50;0.50;;;;;8.80;74.07;101073.31;5086080;28;45316;-82
2021/11/21 10:00:18;;;;;;;;;0.50;0.50;;;;;8.89;73.85;101084.72;5087709;28;45377;-82
2021/11/21 10:02:56;;;;;;;;;0.00;0.00;;;;;9.03;73.56;101090.22;5067274;28;45351;-82
2021/11/21 10:05:28;;;;;;;;;1.25;1.25;;;;;9.05;73.18;101085.91;5085354;28;45162;-83
2021/11/21 10:08:08;;;;;;;;;2.00;2.00;;;;;9.13;73.54;101090.41;5084893;28;45927;-83
2021/11/21 10:10:48;;;;;;;;;0.00;0.00;;;;;9.02;73.24;101049.47;5085012;28;45181;-83
2021/11/21 10:13:34;;;;;;;;;1.75;1.25;;;;;9.23;73.17;101082.81;5066251;28;45422;-84
2021/11/21 10:16:20;;;;;;;;;1.00;1.00;;;;;9.17;73.50;101075.78;5082947;27;45318;-82
2021/11/21 10:18:51;;;;;;;;;0.00;0.00;;;;;9.30;72.94;101076.88;5092112;28;47270;-82
2021/11/21 10:21:19;;;;;;;;;1.25;1.25;;;;;9.11;73.30;101047.06;5104035;28;45415;-84
2021/11/21 10:23:44;;;;;;;;;0.50;0.25;;;;;9.28;73.03;101085.50;5101174;28;44714;-82
2021/11/21 10:26:22;;;;;;;;;0.00;0.00;;;;;9.22;73.11;101086.25;5101410;28;45221;-81
2021/11/21 10:28:47;;;;;;;;;1.25;0.00;;;;;9.22;73.14;101079.31;5085773;28;45388;-82
2021/11/21 10:31:16;;;;;;;;;0.00;0.00;;;;;9.10;73.32;101066.13;5066505;28;45765;-83
2021/11/21 10:33:51;;;;;;;;;1.00;1.00;;;;;9.19;72.94;101081.88;5103686;27;45305;-83
2021/11/21 10:36:38;;;;;;;;;1.00;1.00;;;;;9.04;73.30;101053.88;5086405;27;45588;-82
2021/11/21 10:39:07;;;;;;;;;3.25;1.75;;;;;8.83;73.25;101036.13;5104125;27;46112;-83
2021/11/21 10:41:37;;;;;;;;;0.25;0.25;;;;;9.05;73.85;101073.81;5104797;27;45181;-83
2021/11/21 10:44:05;;;;;;;;;3.25;2.00;;;;;8.98;73.11;101049.41;5104997;27;45429;-84
2021/11/21 10:46:36;;;;;;;;;0.75;0.75;;;;;9.19;73.74;101070.63;5105118;27;45555;-85
2021/11/21 10:49:18;;;;;;;;;3.00;3.00;;;;;9.21;73.50;101069.78;5104781;27;46137;-83
2021/11/21 10:51:58;;;;;;;;;0.00;0.00;;;;;9.24;72.88;101069.84;5104881;27;45264;-83
2021/11/21 10:54:25;;;;;;;;;1.00;0.75;;;;;9.13;73.55;101066.19;5104965;27;45343;-82
2021/11/21 10:56:54;;;;;;;;;1.00;1.00;;;;;9.18;73.67;101071.44;5086181;27;45510;-82
2021/11/21 10:59:50;;;;;;;;;4.00;1.50;;;;;9.10;73.69;101069.56;5085808;27;48002;-82
2021/11/21 11:02:20;;;;;;;;;1.00;0.00;;;;;9.14;73.69;101062.72;5066090;27;46083;-82
2021/11/21 11:05:13;;;;;;;;;0.75;0.75;;;;;9.19;73.93;101065.41;5088358;27;45230;-82
2021/11/21 11:07:53;;;;;;;;;2.00;1.50;;;;;9.02;73.55;101031.31;5107382;27;45290;-83
2021/11/21 11:10:25;;;;;;;;;2.50;2.00;;;;;9.16;73.71;101065.34;5104755;27;45332;-83
2021/11/21 11:13:15;;;;;;;;;2.00;2.00;;;;;9.06;73.95;101046.97;5086305;27;45277;-83
2021/11/21 11:15:43;;;;;;;;;0.00;0.00;;;;;9.16;74.16;101057.56;5085820;27;45356;-83
2021/11/21 11:18:11;;;;;;;;;0.50;0.50;;;;;9.12;74.26;101047.09;5105279;27;45417;-83
2021/11/21 11:20:44;;;;;;;;;0.75;0.75;;;;;9.20;74.01;101055.06;5103880;27;46279;-84
2021/11/21 11:23:13;;;;;;;;;1.75;1.75;;;;;8.87;74.20;101005.09;5085198;27;45669;-84
2021/11/21 11:25:39;;;;;;;;;1.50;1.25;;;;;9.16;74.07;101049.78;5103302;27;46159;-83
2021/11/21 11:28:13;;;;;;;;;2.00;1.00;;;;;9.03;74.44;101026.13;5086221;27;45615;-83
2021/11/21 11:30:40;;;;;;;;;2.00;1.00;;;;;8.90;74.26;101006.84;5085692;27;47099;-83
2021/11/21 11:33:09;;;;;;;;;3.00;1.00;;;;;9.13;74.70;101048.84;5070586;27;45374;-83